createdAt,value
2018-07-11T00:00:38.667Z,62.29
2018-07-11T00:01:38.639Z,62.94
2018-07-11T00:02:38.646Z,63.16
2018-07-11T00:03:38.649Z,62.87
2018-07-11T00:04:38.648Z,63.73
2018-07-11T00:05:38.610Z,63.4
2018-07-11T00:06:38.635Z,63.67
2018-07-11T00:07:38.643Z,64.08
2018-07-11T00:08:38.625Z,62.99
2018-07-11T00:09:38.632Z,63.12
2018-07-11T00:10:38.633Z,64.27
2018-07-11T00:11:38.629Z,64.08
2018-07-11T00:12:38.640Z,64.68
2018-07-11T00:13:38.652Z,64.96
2018-07-11T00:14:38.658Z,64.43
2018-07-11T00:15:38.638Z,64.62
2018-07-11T00:16:38.654Z,63.99
2018-07-11T00:17:38.638Z,64.04
2018-07-11T00:18:38.657Z,66.36
2018-07-11T00:19:38.643Z,64.23
2018-07-11T00:20:38.633Z,64
2018-07-11T00:21:38.769Z,66.96
2018-07-11T00:22:38.666Z,65.4
2018-07-11T00:23:38.657Z,65.74
2018-07-11T00:24:38.719Z,65.4
2018-07-11T00:25:38.629Z,65.89
2018-07-11T00:26:38.776Z,65.99
2018-07-11T00:27:38.640Z,66.51
2018-07-11T00:28:38.669Z,66.28
2018-07-11T00:29:38.818Z,65.45
2018-07-11T00:30:38.646Z,64.76
2018-07-11T00:31:38.697Z,65.02
2018-07-11T00:32:38.655Z,64.45
2018-07-11T00:33:38.666Z,67.61
2018-07-11T00:34:38.697Z,67.41
2018-07-11T00:35:38.693Z,65.86
2018-07-11T00:36:38.670Z,66.72
2018-07-11T00:37:38.699Z,67.29
2018-07-11T00:38:38.823Z,66.5
2018-07-11T00:39:38.739Z,65.82
2018-07-11T00:40:38.654Z,65.74
2018-07-11T00:41:38.815Z,65.9
2018-07-11T00:42:38.820Z,65.9
2018-07-11T00:43:38.652Z,66.2
2018-07-11T00:44:38.683Z,65.71
2018-07-11T00:45:38.841Z,66.78
2018-07-11T00:46:38.671Z,67.36
2018-07-11T00:47:38.671Z,67.19
2018-07-11T00:48:38.689Z,66.4
2018-07-11T00:49:38.982Z,66.18
2018-07-11T00:50:38.981Z,66.4
2018-07-11T00:51:38.660Z,67.09
2018-07-11T00:52:38.786Z,65.99
2018-07-11T00:53:38.688Z,66.99
2018-07-11T00:54:38.665Z,66.38
2018-07-11T00:55:38.716Z,66.37
2018-07-11T00:56:38.679Z,67.15
2018-07-11T00:57:38.650Z,67.07
2018-07-11T00:58:38.660Z,66.86
2018-07-11T00:59:38.644Z,67.66
2018-07-11T01:00:38.717Z,67.18
2018-07-11T01:01:38.849Z,67.02
2018-07-11T01:02:38.706Z,68.1
2018-07-11T01:03:38.665Z,67.82
2018-07-11T01:04:38.676Z,68.81
2018-07-11T01:05:38.666Z,68.94
2018-07-11T01:06:38.739Z,68.51
2018-07-11T01:07:38.692Z,68.04
2018-07-11T01:08:38.675Z,67.39
2018-07-11T01:09:38.668Z,67.42
2018-07-11T01:10:38.649Z,67.23
2018-07-11T01:11:38.670Z,66.85
2018-07-11T01:12:38.652Z,66.97
2018-07-11T01:13:38.687Z,68.12
2018-07-11T01:14:38.664Z,67.53
2018-07-11T01:15:38.677Z,69.09
2018-07-11T01:16:38.672Z,68.98
2018-07-11T01:17:38.674Z,69.45
2018-07-11T01:18:38.677Z,68.29
2018-07-11T01:19:38.700Z,68.01
2018-07-11T01:20:38.701Z,67.3
2018-07-11T01:21:38.673Z,67.34
2018-07-11T01:22:38.680Z,66.42
2018-07-11T01:23:38.719Z,67.26
2018-07-11T01:24:38.692Z,66.59
2018-07-11T01:25:38.704Z,66.29
2018-07-11T01:26:38.665Z,66.53
2018-07-11T01:27:38.680Z,66.95
2018-07-11T01:28:38.659Z,66.67
2018-07-11T01:29:38.667Z,67.21
2018-07-11T01:30:38.683Z,66.64
2018-07-11T01:31:38.694Z,65.89
2018-07-11T01:32:38.677Z,66.1
2018-07-11T01:33:38.683Z,67.12
2018-07-11T01:34:38.693Z,66.66
2018-07-11T01:35:38.691Z,66.96
2018-07-11T01:36:38.685Z,66.75
2018-07-11T01:37:38.735Z,66.23
2018-07-11T01:38:38.704Z,67.23
2018-07-11T01:39:38.748Z,67.11
2018-07-11T01:40:38.706Z,67.56
2018-07-11T01:41:38.709Z,68.01
2018-07-11T01:42:38.724Z,68.51
2018-07-11T01:43:38.705Z,68.33
2018-07-11T01:44:38.716Z,68.43
2018-07-11T01:45:38.746Z,67.69
2018-07-11T01:46:38.674Z,69.64
2018-07-11T01:47:38.680Z,69.02
2018-07-11T01:48:38.722Z,68.95
2018-07-11T01:49:39.102Z,69.32
2018-07-11T01:50:38.728Z,70.13
2018-07-11T01:51:38.850Z,70.31
2018-07-11T01:52:38.699Z,69.45
2018-07-11T01:53:38.718Z,68.88
2018-07-11T01:54:38.764Z,68.64
2018-07-11T01:55:38.738Z,68.1
2018-07-11T01:56:38.714Z,67.81
2018-07-11T01:57:38.714Z,69.92
2018-07-11T01:58:38.729Z,68.89
2018-07-11T01:59:38.689Z,69.62
2018-07-11T02:00:38.699Z,69.76
2018-07-11T02:01:38.710Z,68.63
2018-07-11T02:02:38.682Z,67.81
2018-07-11T02:03:38.852Z,70
2018-07-11T02:04:38.699Z,69.94
2018-07-11T02:05:38.720Z,69.68
2018-07-11T02:06:38.747Z,68.5
2018-07-11T02:07:38.714Z,68.89
2018-07-11T02:08:38.720Z,70.16
2018-07-11T02:09:38.769Z,70.42
2018-07-11T02:10:38.727Z,70.78
2018-07-11T02:11:38.775Z,69.96
2018-07-11T02:12:38.741Z,69.93
2018-07-11T02:13:38.945Z,69.27
2018-07-11T02:14:38.697Z,70.12
2018-07-11T02:15:38.699Z,69.85
2018-07-11T02:16:38.697Z,69.49
2018-07-11T02:17:38.718Z,70.79
2018-07-11T02:18:38.886Z,70.41
2018-07-11T02:19:38.705Z,70.63
2018-07-11T02:20:38.921Z,69.69
2018-07-11T02:21:38.841Z,70.32
2018-07-11T02:22:38.812Z,69.92
2018-07-11T02:23:38.708Z,69.59
2018-07-11T02:24:38.717Z,70.15
2018-07-11T02:25:38.731Z,69.43
2018-07-11T02:26:38.742Z,69.72
2018-07-11T02:27:38.736Z,70.01
2018-07-11T02:28:38.718Z,70.15
2018-07-11T02:29:38.705Z,68.84
2018-07-11T02:30:38.743Z,68.7
2018-07-11T02:31:38.741Z,68.98
2018-07-11T02:32:38.706Z,69.21
2018-07-11T02:33:38.718Z,69.01
2018-07-11T02:34:38.721Z,68.87
2018-07-11T02:35:38.722Z,68.96
2018-07-11T02:36:38.740Z,68.86
2018-07-11T02:37:38.767Z,68.58
2018-07-11T02:38:38.730Z,68.37
2018-07-11T02:39:38.741Z,67.96
2018-07-11T02:40:39.027Z,68.17
2018-07-11T02:41:38.738Z,68.23
2018-07-11T02:42:38.735Z,68.39
2018-07-11T02:43:38.744Z,68.1
2018-07-11T02:44:38.702Z,68.08
2018-07-11T02:45:38.757Z,67.94
2018-07-11T02:46:38.715Z,68.34
2018-07-11T02:47:38.736Z,68.42
2018-07-11T02:48:38.728Z,67.94
2018-07-11T02:49:38.906Z,68.18
2018-07-11T02:50:38.742Z,68.08
2018-07-11T02:51:38.735Z,67.64
2018-07-11T02:52:38.914Z,67.7
2018-07-11T02:53:38.731Z,67.29
2018-07-11T02:54:38.771Z,67.39
2018-07-11T02:55:38.757Z,67.6
2018-07-11T02:56:38.805Z,67.72
2018-07-11T02:57:38.776Z,67.72
2018-07-11T02:58:38.746Z,68.08
2018-07-11T02:59:38.751Z,68.18
2018-07-11T03:00:38.861Z,68.6
2018-07-11T03:01:38.888Z,68.76
2018-07-11T03:02:38.892Z,68.85
2018-07-11T03:03:40.019Z,68.95
2018-07-11T03:04:38.818Z,68.97
2018-07-11T03:05:38.782Z,68.71
2018-07-11T03:06:38.735Z,69.07
2018-07-11T03:07:38.754Z,69.06
2018-07-11T03:08:39.025Z,69.18
2018-07-11T03:09:38.785Z,69.38
2018-07-11T03:10:38.868Z,69.58
2018-07-11T03:11:38.752Z,69.69
2018-07-11T03:12:38.749Z,69.41
2018-07-11T03:13:38.875Z,69.59
2018-07-11T03:14:38.791Z,69.63
2018-07-11T03:15:38.896Z,69.94
2018-07-11T03:16:38.786Z,70.15
2018-07-11T03:17:38.799Z,69.91
2018-07-11T03:18:38.920Z,70.42
2018-07-11T03:19:38.787Z,70.66
2018-07-11T03:20:38.781Z,69.77
2018-07-11T03:21:38.792Z,70.16
2018-07-11T03:22:38.749Z,70.22
2018-07-11T03:23:38.752Z,70.11
2018-07-11T03:24:38.747Z,70.43
2018-07-11T03:25:38.909Z,70.93
2018-07-11T03:26:38.928Z,70.91
2018-07-11T03:27:38.757Z,70.51
2018-07-11T03:28:38.763Z,70.26
2018-07-11T03:29:38.767Z,70.65
2018-07-11T03:30:39.179Z,71.04
2018-07-11T03:31:38.780Z,70.98
2018-07-11T03:32:38.965Z,70.9
2018-07-11T03:33:38.775Z,70.98
2018-07-11T03:34:38.765Z,71.09
2018-07-11T03:35:38.889Z,70.93
2018-07-11T03:36:38.762Z,70.66
2018-07-11T03:37:38.758Z,70.4
2018-07-11T03:38:38.743Z,70.79
2018-07-11T03:39:38.778Z,70.86
2018-07-11T03:40:38.764Z,71.11
2018-07-11T03:41:38.764Z,71.41
2018-07-11T03:42:38.769Z,71.49
2018-07-11T03:43:38.798Z,71.47
2018-07-11T03:44:38.761Z,71.63
2018-07-11T03:45:38.769Z,71.62
2018-07-11T03:46:38.797Z,71.39
2018-07-11T03:47:38.787Z,71.85
2018-07-11T03:48:38.785Z,71.53
2018-07-11T03:49:38.834Z,71.95
2018-07-11T03:50:38.810Z,71.77
2018-07-11T03:51:38.764Z,72.44
2018-07-11T03:52:38.760Z,72.25
2018-07-11T03:53:38.788Z,72.11
2018-07-11T03:54:38.760Z,71.83
2018-07-11T03:55:38.834Z,72.07
2018-07-11T03:56:38.760Z,72.51
2018-07-11T03:57:38.756Z,72.33
2018-07-11T03:58:38.767Z,72.09
2018-07-11T03:59:38.925Z,72.66
2018-07-11T04:00:38.891Z,72.38
2018-07-11T04:01:38.906Z,72.13
2018-07-11T04:02:38.794Z,72.37
2018-07-11T04:03:38.843Z,72.38
2018-07-11T04:04:38.787Z,72.87
2018-07-11T04:05:38.774Z,72.63
2018-07-11T04:06:38.985Z,72.35
2018-07-11T04:07:38.770Z,72.38
2018-07-11T04:08:38.782Z,72.45
2018-07-11T04:09:38.839Z,72.49
2018-07-11T04:10:38.972Z,71.62
2018-07-11T04:11:39.175Z,71.47
2018-07-11T04:12:38.790Z,71.73
2018-07-11T04:13:38.823Z,71.41
2018-07-11T04:14:38.883Z,71.38
2018-07-11T04:15:38.928Z,71.41
2018-07-11T04:16:38.796Z,71.53
2018-07-11T04:17:39.196Z,71.17
2018-07-11T04:18:38.782Z,71.3
2018-07-11T04:19:38.896Z,71.12
2018-07-11T04:20:38.876Z,71.04
2018-07-11T04:21:38.816Z,71.31
2018-07-11T04:22:38.851Z,71.24
2018-07-11T04:23:38.911Z,70.93
2018-07-11T04:24:38.850Z,71.35
2018-07-11T04:25:38.836Z,71.22
2018-07-11T04:26:38.933Z,70.86
2018-07-11T04:27:39.190Z,70.65
2018-07-11T04:28:39.036Z,70.99
2018-07-11T04:29:38.918Z,70.67
2018-07-11T04:30:38.958Z,70.89
2018-07-11T04:31:38.845Z,71.11
2018-07-11T04:32:38.902Z,71.01
2018-07-11T04:33:38.937Z,70.74
2018-07-11T04:34:38.873Z,70.88
2018-07-11T04:35:38.919Z,70.81
2018-07-11T04:36:38.923Z,70.69
2018-07-11T04:37:39.020Z,70.55
2018-07-11T04:38:38.886Z,70.59
2018-07-11T04:39:39.669Z,70.39
2018-07-11T04:40:38.929Z,70.27
2018-07-11T04:41:38.781Z,69.67
2018-07-11T04:42:39.474Z,70.02
2018-07-11T04:43:38.886Z,69.99
2018-07-11T04:44:38.853Z,69.87
2018-07-11T04:45:38.919Z,69.95
2018-07-11T04:46:38.875Z,69.81
2018-07-11T04:47:38.851Z,69.96
2018-07-11T04:48:38.858Z,69.42
2018-07-11T04:49:38.889Z,69.23
2018-07-11T04:50:38.832Z,69.02
2018-07-11T04:51:38.809Z,69.08
2018-07-11T04:52:38.811Z,68.65
2018-07-11T04:53:38.811Z,68.44
2018-07-11T04:54:38.787Z,68.34
2018-07-11T04:55:38.803Z,68.7
2018-07-11T04:56:38.834Z,68.68
2018-07-11T04:57:38.842Z,68.8
2018-07-11T04:58:39.014Z,68.72
2018-07-11T04:59:38.810Z,68.91
2018-07-11T05:00:38.801Z,68.32
2018-07-11T05:01:39.819Z,68.28
2018-07-11T05:02:38.993Z,68.44
2018-07-11T05:03:38.824Z,68.67
2018-07-11T05:04:38.865Z,69.03
2018-07-11T05:05:38.807Z,69.15
2018-07-11T05:06:38.886Z,69.72
2018-07-11T05:07:38.821Z,69.71
2018-07-11T05:08:38.848Z,69.76
2018-07-11T05:09:38.843Z,69.64
2018-07-11T05:10:38.805Z,69.77
2018-07-11T05:11:38.795Z,69.84
2018-07-11T05:12:38.851Z,70.24
2018-07-11T05:13:38.845Z,70.32
2018-07-11T05:14:38.883Z,70.09
2018-07-11T05:15:38.884Z,70.29
2018-07-11T05:16:39.093Z,70.21
2018-07-11T05:17:38.912Z,70.09
2018-07-11T05:18:38.998Z,70.01
2018-07-11T05:19:38.887Z,70.17
2018-07-11T05:20:38.903Z,70.31
2018-07-11T05:21:38.835Z,70.33
2018-07-11T05:22:38.948Z,70.1
2018-07-11T05:23:38.929Z,70.45
2018-07-11T05:24:38.839Z,70.13
2018-07-11T05:25:38.929Z,69.53
2018-07-11T05:26:38.817Z,69.58
2018-07-11T05:27:39.123Z,69.11
2018-07-11T05:28:38.966Z,68.81
2018-07-11T05:29:38.856Z,68.84
2018-07-11T05:30:38.861Z,68.43
2018-07-11T05:31:38.892Z,68.59
2018-07-11T05:32:38.889Z,69.17
2018-07-11T05:33:38.981Z,68.68
2018-07-11T05:34:38.848Z,68.96
2018-07-11T05:35:38.958Z,68.23
2018-07-11T05:36:38.960Z,68.14
2018-07-11T05:37:38.857Z,68.27
2018-07-11T05:38:38.933Z,68.34
2018-07-11T05:39:38.908Z,68.24
2018-07-11T05:40:38.849Z,68.41
2018-07-11T05:41:38.973Z,68.51
2018-07-11T05:42:38.905Z,68.4
2018-07-11T05:43:39.125Z,68.3
2018-07-11T05:44:38.815Z,68.53
2018-07-11T05:45:38.841Z,68.26
2018-07-11T05:46:39.009Z,68.58
2018-07-11T05:47:38.819Z,68.6
2018-07-11T05:48:38.902Z,68.58
2018-07-11T05:49:38.837Z,68.15
2018-07-11T05:50:38.917Z,68.16
2018-07-11T05:51:38.896Z,68.21
2018-07-11T05:52:38.908Z,67.74
2018-07-11T05:53:38.936Z,67.88
2018-07-11T05:54:38.920Z,67.2
2018-07-11T05:55:38.952Z,66.67
2018-07-11T05:56:38.823Z,66.39
2018-07-11T05:57:38.847Z,66.61
2018-07-11T05:58:38.919Z,66.34
2018-07-11T05:59:39.152Z,66.46
2018-07-11T06:00:38.941Z,66.54
2018-07-11T06:01:39.032Z,66.75
2018-07-11T06:02:38.946Z,66.03
2018-07-11T06:03:39.097Z,66.29
2018-07-11T06:04:41.880Z,65.93
2018-07-11T06:05:38.837Z,66.3
2018-07-11T06:06:38.947Z,66.59
2018-07-11T06:07:39.058Z,66.56
2018-07-11T06:08:38.866Z,66.73
2018-07-11T06:09:38.913Z,67
2018-07-11T06:10:38.846Z,67.15
2018-07-11T06:11:39.585Z,67.3
2018-07-11T06:12:38.832Z,67.31
2018-07-11T06:13:39.029Z,67.15
2018-07-11T06:14:39.023Z,67.6
2018-07-11T06:15:38.848Z,67.65
2018-07-11T06:16:38.859Z,67.62
2018-07-11T06:17:38.898Z,67.71
2018-07-11T06:18:38.874Z,67.66
2018-07-11T06:19:38.900Z,67.68
2018-07-11T06:20:38.877Z,67.86
2018-07-11T06:21:38.892Z,67.5
2018-07-11T06:22:38.901Z,67.67
2018-07-11T06:23:38.892Z,67.77
2018-07-11T06:24:38.856Z,67.24
2018-07-11T06:25:38.871Z,66.88
2018-07-11T06:26:38.943Z,66.71
2018-07-11T06:27:38.837Z,67.03
2018-07-11T06:28:39.038Z,67.44
2018-07-11T06:29:38.866Z,67.39
2018-07-11T06:30:38.875Z,67.31
2018-07-11T06:31:38.920Z,67.54
2018-07-11T06:32:38.870Z,67.46
2018-07-11T06:33:41.232Z,67.45
2018-07-11T06:34:39.349Z,67.51
2018-07-11T06:35:38.880Z,67.59
2018-07-11T06:36:38.929Z,67.53
2018-07-11T06:37:38.892Z,67.17
2018-07-11T06:38:38.921Z,67.56
2018-07-11T06:39:39.690Z,67.3
2018-07-11T06:40:38.881Z,67.81
2018-07-11T06:41:38.979Z,67.62
2018-07-11T06:42:43.345Z,67.59
2018-07-11T06:43:38.915Z,67.7
2018-07-11T06:44:38.908Z,67.79
2018-07-11T06:45:38.900Z,67.7
2018-07-11T06:46:39.063Z,67.7
2018-07-11T06:47:39.020Z,67.61
2018-07-11T06:48:38.862Z,67.93
2018-07-11T06:49:38.971Z,68.11
2018-07-11T06:50:38.922Z,68.1
2018-07-11T06:51:39.058Z,67.86
2018-07-11T06:52:38.901Z,67.82
2018-07-11T06:53:38.911Z,67.2
2018-07-11T06:54:38.900Z,67.31
2018-07-11T06:55:38.921Z,67.51
2018-07-11T06:56:38.893Z,68.07
2018-07-11T06:57:38.950Z,68.06
2018-07-11T06:58:38.903Z,67.97
2018-07-11T06:59:38.894Z,67.97
2018-07-11T07:00:38.910Z,68.11
2018-07-11T07:01:38.930Z,67.58
2018-07-11T07:02:38.903Z,67.51
2018-07-11T07:03:39.021Z,67.79
2018-07-11T07:04:38.876Z,67.94
2018-07-11T07:05:38.882Z,67.96
2018-07-11T07:06:38.971Z,67.64
2018-07-11T07:07:38.904Z,67.45
2018-07-11T07:08:38.940Z,67.89
2018-07-11T07:09:38.907Z,67.76
2018-07-11T07:10:38.971Z,67.43
2018-07-11T07:11:39.124Z,67.52
2018-07-11T07:12:39.027Z,67.47
2018-07-11T07:13:39.044Z,67.7
2018-07-11T07:14:38.888Z,67.67
2018-07-11T07:15:38.885Z,67.55
2018-07-11T07:16:38.926Z,67.25
2018-07-11T07:17:38.909Z,67.32
2018-07-11T07:18:38.878Z,67.51
2018-07-11T07:19:38.929Z,67.3
2018-07-11T07:20:39.000Z,67.62
2018-07-11T07:21:38.893Z,67.56
2018-07-11T07:22:39.084Z,66.99
2018-07-11T07:23:38.898Z,66.95
2018-07-11T07:24:38.926Z,67
2018-07-11T07:25:39.002Z,67.25
2018-07-11T07:26:38.884Z,67.11
2018-07-11T07:27:39.061Z,66.87
2018-07-11T07:28:38.958Z,66.6
2018-07-11T07:29:38.919Z,66.73
2018-07-11T07:30:38.885Z,65.78
2018-07-11T07:31:38.911Z,65.87
2018-07-11T07:32:38.882Z,65.59
2018-07-11T07:33:38.881Z,65.5
2018-07-11T07:34:38.902Z,65.66
2018-07-11T07:35:38.918Z,65.69
2018-07-11T07:36:38.913Z,66.04
2018-07-11T07:37:38.892Z,65.94
2018-07-11T07:38:38.898Z,66.06
2018-07-11T07:39:38.898Z,65.65
2018-07-11T07:40:38.916Z,65.55
2018-07-11T07:41:38.907Z,65.69
2018-07-11T07:42:38.891Z,65.58
2018-07-11T07:43:38.923Z,65.85
2018-07-11T07:44:38.904Z,65.73
2018-07-11T07:45:38.912Z,65.58
2018-07-11T07:46:38.910Z,65.42
2018-07-11T07:47:38.919Z,65.43
2018-07-11T07:48:38.879Z,64.97
2018-07-11T07:49:38.888Z,64.53
2018-07-11T07:50:38.915Z,64.25
2018-07-11T07:51:38.950Z,63.88
2018-07-11T07:52:38.905Z,64.5
2018-07-11T07:53:38.895Z,64.45
2018-07-11T07:54:38.929Z,64.69
2018-07-11T07:55:38.915Z,64.65
2018-07-11T07:56:38.979Z,64.72
2018-07-11T07:57:39.017Z,64.89
2018-07-11T07:58:38.972Z,65.04
2018-07-11T07:59:39.129Z,65.12
2018-07-11T08:00:38.996Z,65.37
2018-07-11T08:01:38.935Z,65.43
2018-07-11T08:02:38.936Z,65.22
2018-07-11T08:03:38.904Z,65.28
2018-07-11T08:04:39.151Z,65.19
2018-07-11T08:05:38.965Z,65.3
2018-07-11T08:06:39.026Z,65.34
2018-07-11T08:07:38.898Z,64.84
2018-07-11T08:08:38.907Z,64.74
2018-07-11T08:09:38.914Z,65.09
2018-07-11T08:10:38.919Z,64.94
2018-07-11T08:11:38.972Z,64.78
2018-07-11T08:12:38.938Z,64.57
2018-07-11T08:13:38.919Z,64.71
2018-07-11T08:14:38.990Z,64.84
2018-07-11T08:15:38.909Z,65
2018-07-11T08:16:38.952Z,64.32
2018-07-11T08:17:38.935Z,64.16
2018-07-11T08:18:38.969Z,63.94
2018-07-11T08:19:38.914Z,64.06
2018-07-11T08:20:38.931Z,63.95
2018-07-11T08:21:38.905Z,63.73
2018-07-11T08:22:38.927Z,63.2
2018-07-11T08:23:38.969Z,63.38
2018-07-11T08:24:38.914Z,62.92
2018-07-11T08:25:38.914Z,63.23
2018-07-11T08:26:38.929Z,63.6
2018-07-11T08:27:38.923Z,63.71
2018-07-11T08:28:38.945Z,64.05
2018-07-11T08:29:39.213Z,63.91
2018-07-11T08:30:38.952Z,64.02
2018-07-11T08:31:38.931Z,63.93
2018-07-11T08:32:38.959Z,64.04
2018-07-11T08:33:38.936Z,63.92
2018-07-11T08:34:39.152Z,63.88
2018-07-11T08:35:38.954Z,63.99
2018-07-11T08:36:38.923Z,63.87
2018-07-11T08:37:38.994Z,63.49
2018-07-11T08:38:38.955Z,63.44
2018-07-11T08:39:38.923Z,63.52
2018-07-11T08:40:38.931Z,63.54
2018-07-11T08:41:39.066Z,63.72
2018-07-11T08:42:39.099Z,63.62
2018-07-11T08:43:38.975Z,63.5
2018-07-11T08:44:38.936Z,63.63
2018-07-11T08:45:38.934Z,63.49
2018-07-11T08:46:39.183Z,63.2
2018-07-11T08:47:38.957Z,63.27
2018-07-11T08:48:38.941Z,63.57
2018-07-11T08:49:38.928Z,63.42
2018-07-11T08:50:38.950Z,63.38
2018-07-11T08:51:38.960Z,63
2018-07-11T08:52:38.956Z,63.27
2018-07-11T08:53:38.993Z,63.4
2018-07-11T08:54:38.928Z,63.2
2018-07-11T08:55:39.020Z,63.06
2018-07-11T08:56:38.936Z,62.79
2018-07-11T08:57:38.949Z,62.69
2018-07-11T08:58:39.023Z,62.99
2018-07-11T08:59:38.950Z,62.79
2018-07-11T09:00:38.940Z,62.51
2018-07-11T09:01:38.947Z,62.57
2018-07-11T09:02:39.017Z,62.55
2018-07-11T09:03:38.978Z,62.13
2018-07-11T09:04:39.275Z,62.24
2018-07-11T09:05:38.990Z,62.24
2018-07-11T09:06:38.972Z,62.15
2018-07-11T09:07:39.073Z,62.32
2018-07-11T09:08:39.283Z,62.37
2018-07-11T09:09:38.981Z,62.55
2018-07-11T09:10:39.131Z,62.71
2018-07-11T09:11:38.969Z,62.12
2018-07-11T09:12:38.954Z,62.21
2018-07-11T09:13:38.975Z,62.52
2018-07-11T09:14:39.033Z,62.87
2018-07-11T09:15:38.958Z,62.56
2018-07-11T09:16:39.051Z,62.51
2018-07-11T09:17:38.973Z,62.46
2018-07-11T09:18:39.024Z,62.66
2018-07-11T09:19:38.983Z,62.38
2018-07-11T09:20:38.970Z,62.34
2018-07-11T09:21:38.956Z,61.99
2018-07-11T09:22:39.134Z,61.81
2018-07-11T09:23:39.125Z,61.76
2018-07-11T09:24:39.029Z,61.64
2018-07-11T09:25:38.952Z,61.63
2018-07-11T09:26:38.993Z,61.62
2018-07-11T09:27:38.943Z,61.67
2018-07-11T09:28:38.943Z,61.58
2018-07-11T09:29:39.526Z,61.64
2018-07-11T09:30:39.143Z,61.68
2018-07-11T09:31:39.100Z,61.8
2018-07-11T09:32:38.986Z,61.68
2018-07-11T09:33:39.058Z,61.77
2018-07-11T09:34:39.022Z,61.85
2018-07-11T09:35:38.958Z,62
2018-07-11T09:36:39.062Z,62.02
2018-07-11T09:37:39.064Z,62.38
2018-07-11T09:38:38.981Z,62.36
2018-07-11T09:39:38.964Z,62.83
2018-07-11T09:40:39.144Z,62.63
2018-07-11T09:41:38.960Z,62.57
2018-07-11T09:42:38.976Z,62.62
2018-07-11T09:43:38.980Z,62.82
2018-07-11T09:44:38.973Z,62.71
2018-07-11T09:45:39.171Z,63.5
2018-07-11T09:46:39.110Z,63.52
2018-07-11T09:47:39.094Z,64.15
2018-07-11T09:48:39.169Z,63.67
2018-07-11T09:49:39.026Z,63.02
2018-07-11T09:50:39.007Z,63.47
2018-07-11T09:51:39.188Z,63.01
2018-07-11T09:52:38.965Z,63
2018-07-11T09:53:39.019Z,63.47
2018-07-11T09:54:39.037Z,63.25
2018-07-11T09:55:38.976Z,63.03
2018-07-11T09:56:38.978Z,63.18
2018-07-11T09:57:38.993Z,63.04
2018-07-11T09:58:38.965Z,63.14
2018-07-11T09:59:38.973Z,62.57
2018-07-11T10:00:39.020Z,62.69
2018-07-11T10:01:38.995Z,62.42
2018-07-11T10:02:38.967Z,62.45
2018-07-11T10:03:39.090Z,62.69
2018-07-11T10:04:38.989Z,62.58
2018-07-11T10:05:38.980Z,62.87
2018-07-11T10:06:40.101Z,62.98
2018-07-11T10:07:39.019Z,63.12
2018-07-11T10:08:38.987Z,63.02
2018-07-11T10:09:38.978Z,62.98
2018-07-11T10:10:38.985Z,62.85
2018-07-11T10:11:39.035Z,63.11
2018-07-11T10:12:39.054Z,62.95
2018-07-11T10:13:38.974Z,63.08
2018-07-11T10:14:39.000Z,62.93
2018-07-11T10:15:38.973Z,62.62
2018-07-11T10:16:38.977Z,62.62
2018-07-11T10:17:39.174Z,62.51
2018-07-11T10:18:38.984Z,62.87
2018-07-11T10:19:39.002Z,62.39
2018-07-11T10:20:39.007Z,62.49
2018-07-11T10:21:39.102Z,62.31
2018-07-11T10:22:39.162Z,62.39
2018-07-11T10:23:39.019Z,62.52
2018-07-11T10:24:38.993Z,62.35
2018-07-11T10:25:39.106Z,62.22
2018-07-11T10:26:39.056Z,62.41
2018-07-11T10:27:38.983Z,62.31
2018-07-11T10:28:39.144Z,62.55
2018-07-11T10:29:39.036Z,62.31
2018-07-11T10:30:38.991Z,62.34
2018-07-11T10:31:39.004Z,62.16
2018-07-11T10:32:39.026Z,61.96
2018-07-11T10:33:39.051Z,61.95
2018-07-11T10:34:39.003Z,61.94
2018-07-11T10:35:39.061Z,61.86
2018-07-11T10:36:39.006Z,61.97
2018-07-11T10:37:39.024Z,61.7
2018-07-11T10:38:39.066Z,61.8
2018-07-11T10:39:39.158Z,61.41
2018-07-11T10:40:39.063Z,61.61
2018-07-11T10:41:39.058Z,61.69
2018-07-11T10:42:39.028Z,61.35
2018-07-11T10:43:39.200Z,60.89
2018-07-11T10:44:39.021Z,61.04
2018-07-11T10:45:39.044Z,60.74
2018-07-11T10:46:39.020Z,60.81
2018-07-11T10:47:39.045Z,60.63
2018-07-11T10:48:39.014Z,60.54
2018-07-11T10:49:39.170Z,60.41
2018-07-11T10:50:39.043Z,59.86
2018-07-11T10:51:39.056Z,60.08
2018-07-11T10:52:39.107Z,60.32
2018-07-11T10:53:39.175Z,59.79
2018-07-11T10:54:39.017Z,59.32
2018-07-11T10:55:39.032Z,59.78
2018-07-11T10:56:39.017Z,59.36
2018-07-11T10:57:39.113Z,60.03
2018-07-11T10:58:39.034Z,59.1
2018-07-11T10:59:39.040Z,58.94
2018-07-11T11:00:39.211Z,58.38
2018-07-11T11:01:39.024Z,58.61
2018-07-11T11:02:39.050Z,58.95
2018-07-11T11:03:39.036Z,58.7
2018-07-11T11:04:39.046Z,58.93
2018-07-11T11:05:39.182Z,58.36
2018-07-11T11:06:39.098Z,58.78
2018-07-11T11:07:39.029Z,58.79
2018-07-11T11:08:39.071Z,58.87
2018-07-11T11:09:39.094Z,58.72
2018-07-11T11:10:39.026Z,58.36
2018-07-11T11:11:39.004Z,58.06
2018-07-11T11:12:39.034Z,58.16
2018-07-11T11:13:39.032Z,58.19
2018-07-11T11:14:39.089Z,58.3
2018-07-11T11:15:39.067Z,58.41
2018-07-11T11:16:39.038Z,58.43
2018-07-11T11:17:39.034Z,58.11
2018-07-11T11:18:39.017Z,57.91
2018-07-11T11:19:39.028Z,57.64
2018-07-11T11:20:39.054Z,57.75
2018-07-11T11:21:39.050Z,57.18
2018-07-11T11:22:39.052Z,57.28
2018-07-11T11:23:39.021Z,56.93
2018-07-11T11:24:39.045Z,56.47
2018-07-11T11:25:39.033Z,56.6
2018-07-11T11:26:39.045Z,56.66
2018-07-11T11:27:39.088Z,56.17
2018-07-11T11:28:39.090Z,56.19
2018-07-11T11:29:39.068Z,55.96
2018-07-11T11:30:39.048Z,55.01
2018-07-11T11:31:39.089Z,54.92
2018-07-11T11:32:39.236Z,54.92
2018-07-11T11:33:39.073Z,55.43
2018-07-11T11:34:39.029Z,55.32
2018-07-11T11:35:39.165Z,54.97
2018-07-11T11:36:39.222Z,54.56
2018-07-11T11:37:39.076Z,53.84
2018-07-11T11:38:39.028Z,53.47
2018-07-11T11:39:39.085Z,53.26
2018-07-11T11:40:39.052Z,53.3
2018-07-11T11:41:39.323Z,53.25
2018-07-11T11:42:39.527Z,53.31
2018-07-11T11:43:39.091Z,53.62
2018-07-11T11:44:39.066Z,53.9
2018-07-11T11:45:39.086Z,53.3
2018-07-11T11:46:39.096Z,53.39
2018-07-11T11:47:39.096Z,53.61
2018-07-11T11:48:39.069Z,54.04
2018-07-11T11:49:39.058Z,54.16
2018-07-11T11:50:39.074Z,54.63
2018-07-11T11:51:39.144Z,54.81
2018-07-11T11:52:39.135Z,55.13
2018-07-11T11:53:39.079Z,55.53
2018-07-11T11:54:39.085Z,55.72
2018-07-11T11:55:39.065Z,55.77
2018-07-11T11:56:39.040Z,56.07
2018-07-11T11:57:39.073Z,56
2018-07-11T11:58:39.112Z,55.96
2018-07-11T11:59:39.061Z,55.95
2018-07-11T12:00:39.153Z,55.81
2018-07-11T12:01:39.135Z,55.82
2018-07-11T12:02:39.097Z,55.87
2018-07-11T12:03:39.047Z,55.93
2018-07-11T12:04:39.074Z,55.97
2018-07-11T12:05:39.056Z,55.97
2018-07-11T12:06:39.233Z,55.75
2018-07-11T12:07:39.129Z,55.98
2018-07-11T12:08:39.042Z,56.01
2018-07-11T12:09:39.149Z,55.88
2018-07-11T12:10:39.055Z,55.89
2018-07-11T12:11:39.757Z,55.37
2018-07-11T12:12:39.091Z,54.58
2018-07-11T12:13:39.179Z,54.36
2018-07-11T12:14:39.213Z,53.99
2018-07-11T12:15:39.068Z,53.39
2018-07-11T12:16:39.260Z,53.45
2018-07-11T12:17:39.082Z,52.98
2018-07-11T12:18:39.154Z,52.57
2018-07-11T12:19:39.080Z,52.59
2018-07-11T12:20:39.066Z,52.61
2018-07-11T12:21:39.071Z,52.41
2018-07-11T12:22:39.065Z,52.22
2018-07-11T12:23:40.743Z,52.15
2018-07-11T12:24:39.199Z,52.06
2018-07-11T12:25:39.055Z,51.09
2018-07-11T12:26:39.064Z,50.71
2018-07-11T12:27:39.057Z,50.1
2018-07-11T12:28:39.061Z,49.8
2018-07-11T12:29:39.065Z,50.24
2018-07-11T12:30:39.112Z,50.24
2018-07-11T12:31:39.091Z,49.95
2018-07-11T12:32:39.064Z,49.76
2018-07-11T12:33:39.137Z,49.28
2018-07-11T12:34:39.108Z,49.56
2018-07-11T12:35:39.110Z,49.32
2018-07-11T12:36:39.106Z,49.32
2018-07-11T12:37:39.145Z,49.58
2018-07-11T12:38:39.129Z,48.56
2018-07-11T12:39:39.151Z,49.21
2018-07-11T12:40:39.166Z,48.64
2018-07-11T12:41:39.156Z,48.66
2018-07-11T12:42:39.158Z,49.01
2018-07-11T12:43:39.220Z,48.62
2018-07-11T12:44:39.492Z,49.08
2018-07-11T12:45:39.238Z,49.37
2018-07-11T12:46:39.311Z,49.65
2018-07-11T12:47:39.139Z,49.85
2018-07-11T12:48:39.147Z,49.96
2018-07-11T12:49:39.163Z,49.38
2018-07-11T12:50:39.210Z,49.47
2018-07-11T12:51:39.153Z,48.75
2018-07-11T12:52:39.205Z,48.8
2018-07-11T12:53:39.139Z,48.73
2018-07-11T12:54:39.138Z,48.22
2018-07-11T12:55:39.141Z,48.27